Terminal Aerodrome Forecast
Issued by NWS

Home | Current Version | Previous Version | Text Only | Print | Product List | Glossary On
Versions: 1 2 3 4 5 6 7 8 9 10 11 12 13
878
FTPA31 PHFO 191125
TAFHMK
TAF
PHMK 191125Z 1912/2012 06013G20KT P6SM FEW025 SCT050
     FM192000 06018G28KT P6SM FEW025 SCT050
     FM200600 07011G16KT P6SM SCT025 SCT050
      AMD NOT SKED=

USA.gov is the U.S. government's official web portal to all federal, state and local government web resources and services.